createdAt,value
2023-02-23T00:00:01.231Z,100912.34
2023-02-23T00:03:06.390Z,100897.03
2023-02-23T00:06:10.301Z,100901.34
2023-02-23T00:09:23.070Z,100897.22
2023-02-23T00:12:26.979Z,100897.28
2023-02-23T00:15:30.502Z,100892.25
2023-02-23T00:18:45.038Z,100890.50
2023-02-23T00:21:48.171Z,100884.66
2023-02-23T00:24:54.105Z,100891.53
2023-02-23T00:27:57.277Z,100880.44
2023-02-23T00:31:04.100Z,100875.47
2023-02-23T00:34:15.073Z,100878.13
2023-02-23T00:37:19.518Z,100877.41
2023-02-23T00:40:27.336Z,100876.47
2023-02-23T00:43:30.451Z,100878.31
2023-02-23T00:46:33.457Z,100869.56
2023-02-23T00:49:40.697Z,100876.56
2023-02-23T00:52:45.258Z,100884.31
2023-02-23T00:55:48.601Z,100871.38
2023-02-23T00:58:51.911Z,100874.91
2023-02-23T01:01:57.590Z,100869.69
2023-02-23T01:05:02.029Z,100879.22
2023-02-23T01:08:10.136Z,100868.84
2023-02-23T01:11:19.434Z,100862.09
2023-02-23T01:14:23.604Z,100857.88
2023-02-23T01:17:27.563Z,100865.69
2023-02-23T01:20:36.151Z,100860.41
2023-02-23T01:23:41.644Z,100869.03
2023-02-23T01:26:49.786Z,100865.75
2023-02-23T01:29:52.860Z,100858.84
2023-02-23T01:32:56.023Z,100859.81
2023-02-23T01:36:01.627Z,100857.28
2023-02-23T01:39:07.739Z,100854.91
2023-02-23T01:42:14.588Z,100853.22
2023-02-23T01:45:34.757Z,100837.00
2023-02-23T01:48:41.494Z,100844.78
2023-02-23T01:51:51.402Z,100837.84
2023-02-23T01:54:56.908Z,100848.91
2023-02-23T01:58:15.505Z,100835.28
2023-02-23T02:01:19.781Z,100836.19
2023-02-23T02:04:26.021Z,100839.59
2023-02-23T02:07:35.137Z,100823.28
2023-02-23T02:10:46.370Z,100827.53
2023-02-23T02:13:50.683Z,100819.00
2023-02-23T02:17:16.819Z,100824.25
2023-02-23T02:21:15.999Z,100812.34
2023-02-23T02:25:00.821Z,100810.72
2023-02-23T02:28:54.732Z,100802.22
2023-02-23T02:32:33.494Z,100797.06
2023-02-23T02:36:19.869Z,100797.13
2023-02-23T02:39:38.215Z,100794.78
2023-02-23T02:42:58.262Z,100800.81
2023-02-23T02:46:12.988Z,100796.53
2023-02-23T02:49:26.682Z,100794.03
2023-02-23T02:52:36.300Z,100794.91
2023-02-23T02:55:43.880Z,100792.53
2023-02-23T02:58:50.574Z,100797.75
2023-02-23T03:02:12.581Z,100794.28
2023-02-23T03:05:35.715Z,100787.53
2023-02-23T03:09:03.682Z,100787.38
2023-02-23T03:12:44.192Z,100779.72
2023-02-23T03:16:22.075Z,100773.91
2023-02-23T03:19:46.563Z,100773.16
2023-02-23T03:23:16.517Z,100772.28
2023-02-23T03:26:47.694Z,100776.59
2023-02-23T03:30:17.667Z,100779.34
2023-02-23T03:33:51.483Z,100768.22
2023-02-23T03:37:25.211Z,100765.72
2023-02-23T03:40:52.289Z,100772.69
2023-02-23T03:44:17.145Z,100774.34
2023-02-23T03:47:43.977Z,100765.72
2023-02-23T03:51:13.339Z,100776.03
2023-02-23T03:54:38.967Z,100763.22
2023-02-23T03:58:02.560Z,100762.56
2023-02-23T04:01:29.216Z,100760.09
2023-02-23T04:04:53.473Z,100755.28
2023-02-23T04:08:14.980Z,100755.44
2023-02-23T04:11:44.661Z,100751.13
2023-02-23T04:14:57.580Z,100750.53
2023-02-23T04:18:01.268Z,100747.31
2023-02-23T04:21:07.871Z,100755.03
2023-02-23T04:24:12.058Z,100750.91
2023-02-23T04:27:15.778Z,100751.72
2023-02-23T04:30:20.542Z,100755.44
2023-02-23T04:33:25.072Z,100747.72
2023-02-23T04:36:29.468Z,100754.72
2023-02-23T04:39:32.844Z,100745.47
2023-02-23T04:42:36.546Z,100746.47
2023-02-23T04:45:40.035Z,100738.81
2023-02-23T04:48:43.189Z,100737.09
2023-02-23T04:51:47.977Z,100736.41
2023-02-23T04:54:51.230Z,100735.75
2023-02-23T04:58:00.277Z,100728.16
2023-02-23T05:01:09.678Z,100733.41
2023-02-23T05:04:13.067Z,100732.59
2023-02-23T05:07:17.829Z,100730.06
2023-02-23T05:10:21.576Z,100724.91
2023-02-23T05:13:24.939Z,100728.38
2023-02-23T05:16:28.248Z,100725.97
2023-02-23T05:19:31.544Z,100719.06
2023-02-23T05:22:36.152Z,100726.72
2023-02-23T05:25:39.771Z,100721.72
2023-02-23T05:28:44.329Z,100721.03
2023-02-23T05:31:48.651Z,100727.03
2023-02-23T05:34:52.374Z,100717.84
2023-02-23T05:37:58.807Z,100721.38
2023-02-23T05:41:07.322Z,100721.38
2023-02-23T05:44:11.188Z,100726.66
2023-02-23T05:47:14.453Z,100725.09
2023-02-23T05:50:17.873Z,100736.41
2023-02-23T05:53:32.363Z,100739.16
2023-02-23T05:56:35.621Z,100740.91
2023-02-23T05:59:38.784Z,100743.72
2023-02-23T06:02:42.540Z,100749.00
2023-02-23T06:05:54.096Z,100749.06
2023-02-23T06:08:59.509Z,100750.94
2023-02-23T06:12:02.646Z,100753.66
2023-02-23T06:15:07.397Z,100753.66
2023-02-23T06:18:10.903Z,100755.47
2023-02-23T06:21:15.806Z,100750.41
2023-02-23T06:24:20.322Z,100751.31
2023-02-23T06:27:23.346Z,100758.09
2023-02-23T06:30:29.645Z,100752.22
2023-02-23T06:33:32.761Z,100749.50
2023-02-23T06:36:36.107Z,100754.66
2023-02-23T06:39:40.565Z,100754.56
2023-02-23T06:42:43.676Z,100754.44
2023-02-23T06:45:47.880Z,100758.66
2023-02-23T06:48:51.667Z,100764.38
2023-02-23T06:51:55.323Z,100761.84
2023-02-23T06:55:02.664Z,100765.06
2023-02-23T06:58:07.180Z,100760.47
2023-02-23T07:01:14.176Z,100757.13
2023-02-23T07:04:17.385Z,100753.56
2023-02-23T07:07:20.984Z,100760.25
2023-02-23T07:10:28.130Z,100762.66
2023-02-23T07:13:37.008Z,100760.69
2023-02-23T07:16:40.573Z,100754.69
2023-02-23T07:19:43.655Z,100760.44
2023-02-23T07:22:47.350Z,100761.94
2023-02-23T07:25:53.048Z,100759.91
2023-02-23T07:28:58.370Z,100759.13
2023-02-23T07:32:01.975Z,100756.41
2023-02-23T07:35:06.907Z,100757.22
2023-02-23T07:38:10.382Z,100758.22
2023-02-23T07:41:18.270Z,100753.53
2023-02-23T07:44:21.782Z,100756.66
2023-02-23T07:47:30.880Z,100755.84
2023-02-23T07:50:35.562Z,100755.25
2023-02-23T07:53:41.419Z,100748.38
2023-02-23T07:56:45.870Z,100749.56
2023-02-23T07:59:49.336Z,100752.81
2023-02-23T08:02:54.009Z,100741.56
2023-02-23T08:05:57.489Z,100740.25
2023-02-23T08:09:01.105Z,100740.00
2023-02-23T08:12:06.342Z,100738.75
2023-02-23T08:15:11.507Z,100743.47
2023-02-23T08:18:14.692Z,100733.63
2023-02-23T08:21:17.833Z,100740.91
2023-02-23T08:24:20.968Z,100742.50
2023-02-23T08:27:25.786Z,100743.69
2023-02-23T08:30:28.884Z,100744.38
2023-02-23T08:33:33.047Z,100748.25
2023-02-23T08:36:36.397Z,100739.47
2023-02-23T08:39:43.521Z,100743.91
2023-02-23T08:42:52.504Z,100741.16
2023-02-23T08:45:55.887Z,100739.94
2023-02-23T08:48:59.548Z,100751.75
2023-02-23T08:52:02.544Z,100752.84
2023-02-23T08:55:06.604Z,100744.06
2023-02-23T08:58:12.386Z,100747.06
2023-02-23T09:01:19.316Z,100747.91
2023-02-23T09:04:22.868Z,100754.59
2023-02-23T09:07:26.853Z,100754.28
2023-02-23T09:10:30.280Z,100755.22
2023-02-23T09:13:36.511Z,100760.06
2023-02-23T09:16:39.756Z,100759.63
2023-02-23T09:19:42.921Z,100752.66
2023-02-23T09:22:48.795Z,100761.59
2023-02-23T09:25:52.000Z,100763.72
2023-02-23T09:28:56.670Z,100759.28
2023-02-23T09:32:00.023Z,100768.19
2023-02-23T09:35:03.129Z,100758.88
2023-02-23T09:38:08.332Z,100751.91
2023-02-23T09:41:52.461Z,100753.44
2023-02-23T09:45:20.112Z,100758.69
2023-02-23T09:48:27.706Z,100762.13
2023-02-23T09:51:35.929Z,100761.56
2023-02-23T09:54:41.787Z,100758.88
2023-02-23T09:57:49.247Z,100752.16
2023-02-23T10:01:30.643Z,100752.94
2023-02-23T10:04:40.892Z,100750.16
2023-02-23T10:07:50.673Z,100762.28
2023-02-23T10:11:08.390Z,100753.13
2023-02-23T10:14:31.673Z,100753.63
2023-02-23T10:17:46.508Z,100751.78
2023-02-23T10:20:58.241Z,100740.13
2023-02-23T10:24:05.664Z,100751.38
2023-02-23T10:27:15.615Z,100746.63
2023-02-23T10:30:23.090Z,100743.88
2023-02-23T10:33:34.932Z,100742.88
2023-02-23T10:36:41.215Z,100732.31
2023-02-23T10:39:44.379Z,100739.41
2023-02-23T10:42:47.726Z,100742.44
2023-02-23T10:45:53.720Z,100745.78
2023-02-23T10:49:00.488Z,100747.16
2023-02-23T10:52:03.710Z,100747.50
2023-02-23T10:55:09.693Z,100741.66
2023-02-23T10:58:17.784Z,100744.16
2023-02-23T11:01:41.914Z,100742.06
2023-02-23T11:04:57.033Z,100732.75
2023-02-23T11:08:29.201Z,100726.09
2023-02-23T11:11:32.389Z,100723.16
2023-02-23T11:14:35.442Z,100719.59
2023-02-23T11:17:39.442Z,100723.53
2023-02-23T11:20:44.828Z,100728.19
2023-02-23T11:23:55.054Z,100729.25
2023-02-23T11:27:03.739Z,100729.69
2023-02-23T11:30:08.962Z,100725.66
2023-02-23T11:33:18.759Z,100720.78
2023-02-23T11:36:30.517Z,100716.47
2023-02-23T11:39:34.445Z,100717.31
2023-02-23T11:42:37.507Z,100712.38
2023-02-23T11:45:48.454Z,100709.28
2023-02-23T11:48:55.985Z,100708.31
2023-02-23T11:52:00.548Z,100700.72
2023-02-23T11:55:08.985Z,100698.88
2023-02-23T11:58:25.095Z,100693.69
2023-02-23T12:01:45.571Z,100685.94
2023-02-23T12:04:48.830Z,100676.25
2023-02-23T12:08:01.312Z,100682.50
2023-02-23T12:11:09.329Z,100687.97
2023-02-23T12:14:23.007Z,100682.47
2023-02-23T12:17:29.068Z,100681.69
2023-02-23T12:20:42.524Z,100679.81
2023-02-23T12:23:53.007Z,100679.03
2023-02-23T12:27:00.299Z,100673.78
2023-02-23T12:30:13.412Z,100671.31
2023-02-23T12:33:30.098Z,100670.28
2023-02-23T12:36:40.275Z,100661.38
2023-02-23T12:39:48.461Z,100666.91
2023-02-23T12:43:01.489Z,100665.50
2023-02-23T12:46:13.128Z,100661.72
2023-02-23T12:49:26.616Z,100668.97
2023-02-23T12:52:36.695Z,100662.19
2023-02-23T12:55:58.245Z,100654.56
2023-02-23T12:59:21.916Z,100652.47
2023-02-23T13:02:31.513Z,100657.94
2023-02-23T13:05:39.553Z,100655.34
2023-02-23T13:09:01.745Z,100653.56
2023-02-23T13:12:28.528Z,100650.34
2023-02-23T13:15:48.196Z,100650.81
2023-02-23T13:19:15.256Z,100643.16
2023-02-23T13:22:32.555Z,100640.78
2023-02-23T13:25:44.110Z,100642.94
2023-02-23T13:28:58.684Z,100647.97
2023-02-23T13:32:04.892Z,100647.66
2023-02-23T13:35:15.763Z,100635.78
2023-02-23T13:38:32.177Z,100634.19
2023-02-23T13:41:40.387Z,100636.59
2023-02-23T13:44:52.374Z,100634.69
2023-02-23T13:48:02.077Z,100645.28
2023-02-23T13:51:15.892Z,100645.97
2023-02-23T13:54:35.761Z,100656.22
2023-02-23T13:57:46.158Z,100648.75
2023-02-23T14:01:06.017Z,100654.22
2023-02-23T14:04:17.290Z,100651.31
2023-02-23T14:07:28.117Z,100652.63
2023-02-23T14:10:38.643Z,100655.81
2023-02-23T14:13:59.414Z,100653.63
2023-02-23T14:17:57.816Z,100650.78
2023-02-23T14:21:17.892Z,100645.34
2023-02-23T14:24:24.424Z,100661.31
2023-02-23T14:27:41.908Z,100661.78
2023-02-23T14:30:53.065Z,100661.56
2023-02-23T14:34:08.064Z,100670.34
2023-02-23T14:37:21.933Z,100669.19
2023-02-23T14:40:57.147Z,100664.84
2023-02-23T14:44:12.283Z,100665.56
2023-02-23T14:47:50.624Z,100658.69
2023-02-23T14:55:30.926Z,100649.44
2023-02-23T14:58:35.157Z,100653.81
2023-02-23T15:01:40.982Z,100650.38
2023-02-23T15:04:44.091Z,100655.16
2023-02-23T15:07:51.833Z,100648.94
2023-02-23T15:11:03.346Z,100645.59
2023-02-23T15:14:10.529Z,100639.97
2023-02-23T15:17:22.978Z,100645.41
2023-02-23T15:23:39.830Z,100640.81
2023-02-23T15:26:43.763Z,100639.97
2023-02-23T15:29:47.569Z,100636.31
2023-02-23T15:33:00.704Z,100638.31
2023-02-23T15:36:09.802Z,100626.66
2023-02-23T15:39:19.071Z,100628.22
2023-02-23T15:42:28.039Z,100625.09
2023-02-23T15:45:40.222Z,100629.16
2023-02-23T15:48:48.525Z,100628.53
2023-02-23T15:51:59.340Z,100625.22
2023-02-23T15:55:10.119Z,100625.63
2023-02-23T15:58:21.690Z,100625.13
2023-02-23T16:01:28.133Z,100619.59
2023-02-23T16:04:33.945Z,100622.94
2023-02-23T16:07:43.344Z,100623.13
2023-02-23T16:10:49.269Z,100622.31
2023-02-23T16:13:55.051Z,100618.97
2023-02-23T16:17:10.958Z,100605.97
2023-02-23T16:20:19.482Z,100617.09
2023-02-23T16:23:34.335Z,100610.31
2023-02-23T16:26:47.237Z,100608.78
2023-02-23T16:30:00.177Z,100608.56
2023-02-23T16:33:08.396Z,100607.31
2023-02-23T16:36:21.297Z,100605.22
2023-02-23T16:39:29.595Z,100613.88
2023-02-23T16:42:40.322Z,100608.97
2023-02-23T16:45:44.924Z,100606.25
2023-02-23T16:48:48.670Z,100611.66
2023-02-23T16:51:52.200Z,100606.66
2023-02-23T16:54:57.516Z,100605.84
2023-02-23T16:58:04.868Z,100611.75
2023-02-23T17:01:10.585Z,100605.94
2023-02-23T17:04:16.230Z,100602.34
2023-02-23T17:07:24.123Z,100599.03
2023-02-23T17:10:31.963Z,100595.44
2023-02-23T17:13:37.038Z,100600.16
2023-02-23T17:16:40.217Z,100590.41
2023-02-23T17:19:44.128Z,100592.81
2023-02-23T17:34:09.773Z,100582.72
2023-02-23T17:37:12.833Z,100583.31
2023-02-23T17:40:18.946Z,100583.13
2023-02-23T17:43:23.239Z,100584.38
2023-02-23T17:46:29.257Z,100574.06
2023-02-23T17:49:33.917Z,100578.53
2023-02-23T17:52:37.119Z,100578.00
2023-02-23T17:55:40.362Z,100565.00
2023-02-23T17:58:43.514Z,100566.13
2023-02-23T18:01:48.626Z,100564.47
2023-02-23T18:04:54.140Z,100560.13
2023-02-23T18:08:01.871Z,100561.16
2023-02-23T18:11:05.425Z,100553.78
2023-02-23T18:14:09.541Z,100553.78
2023-02-23T18:17:13.709Z,100550.84
2023-02-23T18:20:18.769Z,100550.03
2023-02-23T18:23:23.038Z,100543.28
2023-02-23T18:26:27.063Z,100542.34
2023-02-23T18:29:34.450Z,100543.38
2023-02-23T18:32:37.767Z,100537.78
2023-02-23T18:35:45.073Z,100537.16
2023-02-23T18:38:48.584Z,100533.34
2023-02-23T18:41:51.969Z,100531.59
2023-02-23T18:44:55.041Z,100531.91
2023-02-23T18:47:59.943Z,100536.44
2023-02-23T18:51:05.861Z,100537.78
2023-02-23T18:54:11.719Z,100536.84
2023-02-23T18:57:18.303Z,100541.50
2023-02-23T19:00:22.689Z,100529.25
2023-02-23T19:03:25.894Z,100534.66
2023-02-23T19:06:33.036Z,100536.91
2023-02-23T19:09:47.153Z,100536.28
2023-02-23T19:12:50.422Z,100531.19
2023-02-23T19:16:01.611Z,100529.53
2023-02-23T19:19:07.440Z,100525.25
2023-02-23T19:22:19.171Z,100522.78
2023-02-23T19:25:28.459Z,100521.53
2023-02-23T19:28:32.560Z,100518.97
2023-02-23T19:31:42.688Z,100515.72
2023-02-23T19:34:48.267Z,100512.28
2023-02-23T19:37:57.534Z,100505.63
2023-02-23T19:41:00.791Z,100511.56
2023-02-23T19:44:04.470Z,100509.69
2023-02-23T19:47:07.525Z,100508.03
2023-02-23T19:50:18.843Z,100509.06
2023-02-23T19:53:28.056Z,100511.75
2023-02-23T19:56:31.309Z,100505.09
2023-02-23T19:59:34.389Z,100510.28
2023-02-23T20:02:42.482Z,100503.97
2023-02-23T20:05:45.678Z,100504.91
2023-02-23T20:08:55.194Z,100505.31
2023-02-23T20:11:58.940Z,100499.28
2023-02-23T20:15:05.210Z,100506.25
2023-02-23T20:18:09.023Z,100512.72
2023-02-23T20:21:16.455Z,100520.28
2023-02-23T20:24:21.683Z,100526.31
2023-02-23T20:27:24.985Z,100532.84
2023-02-23T20:30:32.209Z,100540.97
2023-02-23T20:33:38.766Z,100540.91
2023-02-23T20:36:42.076Z,100536.75
2023-02-23T20:39:47.441Z,100532.09
2023-02-23T20:42:52.560Z,100532.09
2023-02-23T20:46:00.796Z,100527.97
2023-02-23T20:49:05.458Z,100531.44
2023-02-23T20:52:08.684Z,100529.13
2023-02-23T20:55:18.410Z,100531.56
2023-02-23T20:58:25.989Z,100519.53
2023-02-23T21:01:29.684Z,100518.88
2023-02-23T21:04:35.281Z,100518.97
2023-02-23T21:07:38.974Z,100523.22
2023-02-23T21:10:43.506Z,100524.16
2023-02-23T21:13:47.241Z,100514.63
2023-02-23T21:16:50.390Z,100518.22
2023-02-23T21:19:53.445Z,100515.81
2023-02-23T21:22:59.129Z,100515.81
2023-02-23T21:26:14.790Z,100510.63
2023-02-23T21:29:23.814Z,100510.81
2023-02-23T21:32:31.122Z,100504.53
2023-02-23T21:35:38.330Z,100503.03
2023-02-23T21:38:45.863Z,100503.34
2023-02-23T21:41:50.401Z,100507.84
2023-02-23T21:44:56.328Z,100501.09
2023-02-23T21:48:01.496Z,100501.19
2023-02-23T21:51:09.257Z,100501.19
2023-02-23T21:54:21.515Z,100501.00
2023-02-23T21:57:30.607Z,100493.59
2023-02-23T22:00:35.753Z,100492.84
2023-02-23T22:03:43.462Z,100493.69
2023-02-23T22:06:46.580Z,100496.19
2023-02-23T22:09:51.671Z,100491.91
2023-02-23T22:12:56.928Z,100485.19
2023-02-23T22:16:00.708Z,100482.41
2023-02-23T22:19:05.077Z,100478.25
2023-02-23T22:22:11.351Z,100476.03
2023-02-23T22:25:17.355Z,100472.34
2023-02-23T22:28:25.943Z,100477.69
2023-02-23T22:31:32.553Z,100467.88
2023-02-23T22:34:36.358Z,100473.06
2023-02-23T22:37:39.715Z,100461.78
2023-02-23T22:40:47.463Z,100462.59
2023-02-23T22:43:55.686Z,100458.16
2023-02-23T22:47:00.801Z,100456.78
2023-02-23T22:50:15.104Z,100449.00
2023-02-23T22:53:19.293Z,100439.56
2023-02-23T22:56:25.039Z,100439.69
2023-02-23T22:59:30.551Z,100436.06
2023-02-23T23:02:36.425Z,100437.16
2023-02-23T23:05:41.741Z,100439.84
2023-02-23T23:08:49.382Z,100433.84
2023-02-23T23:11:52.647Z,100439.19
2023-02-23T23:15:01.357Z,100428.84
2023-02-23T23:18:13.941Z,100429.59
2023-02-23T23:21:21.894Z,100425.34
2023-02-23T23:24:26.204Z,100426.06
2023-02-23T23:27:33.094Z,100415.81
2023-02-23T23:30:41.096Z,100418.16
2023-02-23T23:33:51.257Z,100417.38
2023-02-23T23:36:55.498Z,100411.47
2023-02-23T23:40:00.290Z,100408.13
2023-02-23T23:43:07.468Z,100405.63
2023-02-23T23:46:14.941Z,100417.03
2023-02-23T23:49:21.133Z,100410.09
2023-02-23T23:52:25.267Z,100409.97
2023-02-23T23:55:31.709Z,100412.56
2023-02-23T23:58:35.065Z,100410.72
